Toledo, Argentina
Current Conditions -  °F | °C
As of 10:00 PM on Monday 24 Nov 2014 (Local Time) from SACO Reporting Station
Scattered Clouds Scattered Clouds  
Wind Chill: 66°   Ceiling: Unl
Heat Index: 66°   Visibility: 6mi
Dew Point: 37°   Wind: 7mph
Humidity: 35%   Direction: 140°SE
Pressure: 30.03"   Gusts: NA
Location:  31.57°S, 64.02°W
Report Text: SACO 250100Z 14006KT 9999 SCT035 SCT10019/03 Q1017
Loading
Personal Weather Stations






























Interactive Weather Map New forecast layout! Learn more

10-Day Weather Forecast

Advertisements
Track Severe Weather on mobile